Sunday, January 21, 2018, 3:33 PM EST
Back to Local

KWRI, Mcguire Air Force Base

Location: Trenton, NJ, United States Lat: 40.017
Local Time: 3:33 PM EST (20:33 GMT) Lon: -74.6
Time Zone: US/Eastern Elev: 134 ft

Show me the last for .
Show Coded

Time T Td Feel RH Dir Speed Gust Alt SLP Vis Weather Sky Remarks
2018-01-21 15:01 52 36 - 53 280° 6 - 30.12 30.12 10 BKN029 OVC037 None
2018-01-21 14:56 51 36 - 56 270° 6 - 30.12 30.12 10 SCT030 OVC037 None
2018-01-21 13:56 52 37 - 56 310° 8 - 30.12 30.12 10 BKN038 None
2018-01-21 12:56 52 37 - 55 310° 9 - 30.13 30.13 10 FEW035 6-hr Min Temp (1pm): 33.1°F
6-hr Max Temp (1pm): 53.2°F
2018-01-21 11:56 52 35 - 51 300° 10 - 30.16 30.16 10 SCT040 None
2018-01-21 10:56 50 34 46 53 320° 8 - 30.18 30.18 10 CLR None
2018-01-21 09:56 48 33 44 56 300° 9 - 30.18 30.18 10 CLR None
2018-01-21 08:56 43 32 40 63 270° 5 - 30.16 30.16 10 CLR None
2018-01-21 07:56 36 29 33 75 230° 3 - 30.15 30.15 10 CLR None
2018-01-21 06:56 40 30 36 65 290° 6 - 30.13 30.13 10 CLR 6-hr Min Temp (7am): 34.5°F
6-hr Max Temp (7am): 41.0°F
2018-01-21 05:56 40 29 34 65 300° 8 - 30.12 30.12 10 CLR None
2018-01-21 04:56 38 29 35 69 300° 5 - 30.09 30.09 10 CLR None
2018-01-21 03:56 35 28 31 75 250° 5 - 30.08 30.08 10 CLR None
2018-01-21 02:56 40 29 37 63 280° 5 - 30.08 30.08 10 CLR None
2018-01-21 01:56 40 29 37 64 300° 5 - 30.06 30.06 10 CLR None
2018-01-21 00:56 38 29 33 69 280° 7 - 30.05 30.05 10 CLR 6-hr Min Temp (1am): 30.9°F
6-hr Max Temp (1am): 45.3°F
2018-01-20 23:56 32 27 27 83 240° 5 - 30.05 30.05 10 CLR 24-hr Min Temp (12am): 28.6°F
24-hr Max Temp (12am): 55.2°F
2018-01-20 22:56 32 27 26 83 240° 6 - 30.04 30.04 10 CLR None
2018-01-20 21:56 38 29 - 69 - Calm - 30.03 30.03 10 CLR None
2018-01-20 20:56 41 29 39 60 270° 3 - 30.02 30.02 10 CLR None
2018-01-20 19:56 42 29 40 59 270° 3 - 30.01 30.01 10 CLR None
2018-01-20 18:56 46 29 43 52 290° 5 - 29.99 29.99 10 CLR 6-hr Min Temp (7pm): 45.5°F
6-hr Max Temp (7pm): 55.2°F
2018-01-20 17:56 46 29 42 49 300° 8 - 29.96 29.96 10 FEW220 None
2018-01-20 16:56 50 28 46 43 300° 9 - 29.94 29.94 10 CLR None
2018-01-20 15:56 54 29 - 38 290° 14 22 29.90 29.90 10 CLR None

Support USWX by starting your Amazon purchase here.